EW9965 Weather Reports


Display with metric or nautical units.
time (UTC)temp
F
wind
direction
speed
MPH
gust
MPH
rain 1hr
in
rain 24hr
in
rain mn
in
humidity
%
barometer
mb
20240518010057 71 252 2.0 8.0 0.00 0.00 0.00 65 1012.3
20240518004619 72 209 3.0 12.0 0.00 0.00 0.00 62 1012.2
20240518003056 74 205 2.0 7.0 0.00 0.00 0.00 59 1012.1
20240518001600 74 214 3.0 8.0 0.00 0.00 0.00 58 1012.0
20240518000103 75 234 2.0 7.0 0.00 0.00 0.00 58 1011.8
20240517234555 75 256 2.0 7.0 0.00 0.00 0.00 59 1011.8
20240517233059 74 214 2.0 8.0 0.00 0.00 0.00 58 1011.9
20240517231553 74 176 2.0 7.0 0.00 0.00 0.00 59 1012.0
20240517230048 74 190 4.0 7.0 0.00 0.00 0.00 59 1012.2
20240517224548 74 276 2.0 8.0 0.00 0.00 0.00 60 1012.5
20240517223045 75 144 1.0 10.0 0.00 0.00 0.00 59 1012.6
20240517221543 74 189 4.0 8.0 0.00 0.00 0.00 60 1012.9
20240517220041 72 290 3.0 9.0 0.00 0.00 0.00 62 1013.0
20240517214545 72 252 2.0 7.0 0.00 0.00 0.00 63 1013.2
20240517213137 71 298 2.0 10.0 0.00 0.00 0.00 62 1013.3
20240517211536 72 173 3.0 7.0 0.00 0.00 0.00 64 1013.5
20240517210036 71 160 2.0 7.0 0.00 0.00 0.00 67 1013.8
20240517204527 68 250 1.0 10.0 0.00 0.00 0.00 69 1014.0
20240517203032 68 275 2.0 8.0 0.00 0.00 0.00 70 1014.0
20240517201524 69 155 4.0 8.0 0.00 0.00 0.00 68 1014.2
20240517200022 67 215 3.0 7.0 0.00 0.00 0.00 72 1014.2
20240517194520 67 171 3.0 6.0 0.00 0.00 0.00 74 1014.3
20240517193016 66 134 4.0 7.0 0.00 0.00 0.00 75 1014.4
20240517191512 65 232 2.0 7.0 0.00 0.00 0.00 77 1014.4
20240517190014 64 174 2.0 6.0 0.00 0.00 0.00 80 1014.6
20240517184504 62 211 1.0 5.0 0.00 0.00 0.00 83 1014.6
20240517183111 62 228 2.0 6.0 0.00 0.00 0.00 83 1014.7
20240517181557 61 263 1.0 6.0 0.00 0.00 0.00 84 1014.8
20240517180104 62 204 1.0 5.0 0.00 0.00 0.00 85 1014.8
20240517174553 61 149 0.0 4.0 0.00 0.00 0.00 85 1014.8
20240517173050 61 166 1.0 5.0 0.00 0.00 0.00 87 1014.8
20240517171551 61 268 0.0 3.0 0.00 0.00 0.00 86 1014.9
20240517170046 60 176 1.0 2.0 0.00 0.00 0.00 88 1015.0
20240517164542 60 208 1.0 4.0 0.00 0.00 0.00 90 1015.0
20240517163041 59 162 1.0 3.0 0.00 0.00 0.00 91 1015.2
20240517161539 59 225 0.0 4.0 0.00 0.00 0.00 92 1015.2
20240517160043 58 244 0.0 4.0 0.00 0.00 0.00 93 1015.3
20240517154540 58 194 0.0 4.0 0.00 0.00 0.00 93 1015.3
20240517153031 58 198 0.0 5.0 0.00 0.00 0.00 93 1015.3
20240517151529 58 242 1.0 5.0 0.00 0.00 0.00 93 1015.2
20240517150027 58 206 0.0 6.0 0.00 0.00 0.00 93 1015.0
20240517144526 58 203 0.0 5.0 0.00 0.00 0.00 94 1014.9
20240517143028 58 240 0.0 5.0 0.00 0.00 0.00 94 1014.7
20240517141527 58 197 0.0 5.0 0.00 0.00 0.00 94 1014.8
20240517140022 58 241 1.0 4.0 0.00 0.00 0.00 94 1014.6
20240517134523 58 242 1.0 4.0 0.00 0.00 0.00 94 1014.6
20240517133018 57 246 1.0 2.0 0.00 0.00 0.00 94 1014.5
20240517131518 57 228 0.0 1.0 0.00 0.00 0.00 93 1014.5
20240517130017 57 214 0.0 4.0 0.00 0.00 0.00 94 1014.5
20240517124516 57 238 0.0 5.0 0.00 0.00 0.00 93 1014.4
20240517123023 57 187 0.0 4.0 0.00 0.00 0.00 94 1014.5
20240517121535 57 205 0.0 5.0 0.00 0.00 0.00 93 1014.4
20240517120021 58 228 0.0 4.0 0.00 0.00 0.00 93 1014.4
20240517114510 58 242 0.0 1.0 0.00 0.00 0.00 93 1014.5
20240517113014 58 247 0.0 2.0 0.00 0.00 0.00 93 1014.5
20240517111508 58 240 0.0 4.0 0.00 0.00 0.00 93 1014.6
20240517110008 58 228 0.0 4.0 0.00 0.00 0.00 92 1014.7
20240517104506 58 245 0.0 0.0 0.00 0.00 0.00 93 1014.7
20240517103006 58 256 0.0 0.0 0.00 0.00 0.00 92 1014.8
20240517101505 58 253 1.0 2.0 0.00 0.00 0.00 92 1014.9
20240517100004 58 245 0.0 0.0 0.00 0.00 0.00 92 1014.9
20240517094503 58 245 0.0 1.0 0.00 0.00 0.00 92 1014.8
20240517093002 58 245 0.0 0.0 0.00 0.00 0.00 91 1014.9
20240517091502 58 245 0.0 2.0 0.00 0.00 0.00 91 1015.0
20240517090104 58 245 0.0 2.0 0.00 0.00 0.00 91 1015.1
20240517084600 58 245 0.0 0.0 0.00 0.00 0.00 90 1015.3
20240517083056 58 215 0.0 2.0 0.00 0.00 0.00 90 1015.4
20240517081555 59 215 0.0 2.0 0.00 0.00 0.00 89 1015.5
20240517080052 59 221 0.0 2.0 0.00 0.00 0.00 89 1015.6
20240517074552 59 232 1.0 5.0 0.00 0.00 0.00 88 1015.4
20240517073050 59 247 1.0 5.0 0.00 0.00 0.00 87 1015.5
20240517071549 59 290 1.0 5.0 0.00 0.00 0.00 86 1015.5
20240517070047 60 275 1.0 4.0 0.00 0.00 0.00 85 1015.5
20240517064556 60 230 2.0 5.0 0.00 0.00 0.00 84 1015.3
20240517063047 60 238 2.0 5.0 0.00 0.00 0.00 84 1015.3
20240517061545 60 216 1.0 4.0 0.00 0.00 0.00 84 1015.4
20240517060044 60 270 1.0 4.0 0.00 0.00 0.00 83 1015.4
20240517054543 60 255 2.0 5.0 0.00 0.00 0.00 83 1015.3
20240517053059 60 245 1.0 5.0 0.00 0.00 0.00 83 1015.2
20240517051542 60 221 1.0 5.0 0.00 0.00 0.00 83 1015.1
20240517050045 60 272 0.0 5.0 0.00 0.00 0.00 83 1015.0
20240517044602 60 171 1.0 5.0 0.00 0.00 0.00 83 1014.9
20240517043040 60 195 1.0 5.0 0.00 0.00 0.00 83 1014.8
20240517041544 60 234 1.0 5.0 0.00 0.00 0.00 82 1014.5
20240517040038 61 284 2.0 7.0 0.00 0.00 0.00 82 1014.2
20240517034540 61 236 1.0 6.0 0.00 0.00 0.00 82 1013.9
20240517033037 60 242 3.0 6.0 0.00 0.00 0.00 81 1013.8
20240517031536 61 218 1.0 6.0 0.00 0.00 0.00 81 1013.7
20240517030036 61 186 1.0 7.0 0.00 0.00 0.00 79 1013.5
20240517024539 62 228 2.0 6.0 0.00 0.00 0.00 77 1013.4
20240517023034 63 228 4.0 7.0 0.00 0.00 0.00 75 1013.3
20240517021536 64 195 2.0 6.0 0.00 0.00 0.00 74 1013.1
20240517020032 65 207 2.0 6.0 0.00 0.00 0.00 72 1013.0
20240517014535 66 179 2.0 9.0 0.00 0.00 0.00 71 1012.9
20240517013034 67 279 1.0 8.0 0.00 0.00 0.00 69 1012.8
20240517011549 68 188 2.0 8.0 0.00 0.00 0.00 68 1012.8